sensor_id;sensor_type;location;lat;lon;timestamp;P1;durP1;ratioP1;P2;durP2;ratioP2
23670;SDS011;12012;51.998;7.614;2023-01-20T00:00:21;89.38;;;38.58;;
23670;SDS011;12012;51.998;7.614;2023-01-20T00:02:47;84.40;;;37.25;;
23670;SDS011;12012;51.998;7.614;2023-01-20T00:05:13;92.20;;;39.05;;
23670;SDS011;12012;51.998;7.614;2023-01-20T00:07:38;75.82;;;35.65;;
23670;SDS011;12012;51.998;7.614;2023-01-20T00:10:04;88.10;;;35.38;;
23670;SDS011;12012;51.998;7.614;2023-01-20T00:12:30;86.63;;;38.25;;
23670;SDS011;12012;51.998;7.614;2023-01-20T00:14:56;76.45;;;34.88;;
23670;SDS011;12012;51.998;7.614;2023-01-20T00:17:22;91.00;;;38.28;;
23670;SDS011;12012;51.998;7.614;2023-01-20T00:19:47;88.05;;;37.13;;
23670;SDS011;12012;51.998;7.614;2023-01-20T00:22:13;79.50;;;35.70;;
23670;SDS011;12012;51.998;7.614;2023-01-20T00:24:38;81.63;;;35.67;;
23670;SDS011;12012;51.998;7.614;2023-01-20T00:27:04;87.32;;;37.17;;
23670;SDS011;12012;51.998;7.614;2023-01-20T00:29:31;94.85;;;39.88;;
23670;SDS011;12012;51.998;7.614;2023-01-20T00:31:57;93.93;;;37.90;;
23670;SDS011;12012;51.998;7.614;2023-01-20T00:34:22;86.28;;;37.03;;
23670;SDS011;12012;51.998;7.614;2023-01-20T00:36:48;82.15;;;36.28;;
23670;SDS011;12012;51.998;7.614;2023-01-20T00:39:13;81.38;;;38.05;;
23670;SDS011;12012;51.998;7.614;2023-01-20T00:41:39;88.25;;;39.05;;
23670;SDS011;12012;51.998;7.614;2023-01-20T00:44:05;72.53;;;35.00;;
23670;SDS011;12012;51.998;7.614;2023-01-20T00:46:30;83.03;;;38.53;;
23670;SDS011;12012;51.998;7.614;2023-01-20T00:48:56;74.45;;;35.20;;
23670;SDS011;12012;51.998;7.614;2023-01-20T00:51:21;74.78;;;34.63;;
23670;SDS011;12012;51.998;7.614;2023-01-20T00:53:47;80.75;;;36.38;;
23670;SDS011;12012;51.998;7.614;2023-01-20T00:56:13;82.05;;;35.75;;
23670;SDS011;12012;51.998;7.614;2023-01-20T00:58:40;87.10;;;35.65;;
23670;SDS011;12012;51.998;7.614;2023-01-20T01:01:06;78.53;;;36.75;;
23670;SDS011;12012;51.998;7.614;2023-01-20T01:03:32;86.47;;;37.45;;
23670;SDS011;12012;51.998;7.614;2023-01-20T01:06:08;72.65;;;33.15;;
23670;SDS011;12012;51.998;7.614;2023-01-20T01:08:41;78.45;;;35.92;;
23670;SDS011;12012;51.998;7.614;2023-01-20T01:11:08;85.63;;;36.90;;
23670;SDS011;12012;51.998;7.614;2023-01-20T01:13:34;81.07;;;36.60;;
23670;SDS011;12012;51.998;7.614;2023-01-20T01:16:01;77.85;;;36.63;;
23670;SDS011;12012;51.998;7.614;2023-01-20T01:18:27;72.40;;;32.47;;
23670;SDS011;12012;51.998;7.614;2023-01-20T01:20:52;77.22;;;34.83;;
23670;SDS011;12012;51.998;7.614;2023-01-20T01:23:18;83.80;;;36.72;;
23670;SDS011;12012;51.998;7.614;2023-01-20T01:25:43;73.40;;;34.58;;
23670;SDS011;12012;51.998;7.614;2023-01-20T01:28:09;83.93;;;36.63;;
23670;SDS011;12012;51.998;7.614;2023-01-20T01:30:34;80.45;;;35.03;;
23670;SDS011;12012;51.998;7.614;2023-01-20T01:33:00;81.32;;;35.80;;
23670;SDS011;12012;51.998;7.614;2023-01-20T01:35:26;79.50;;;35.47;;
23670;SDS011;12012;51.998;7.614;2023-01-20T01:37:51;70.35;;;33.55;;
23670;SDS011;12012;51.998;7.614;2023-01-20T01:40:17;85.00;;;35.50;;
23670;SDS011;12012;51.998;7.614;2023-01-20T01:42:42;74.72;;;34.55;;
23670;SDS011;12012;51.998;7.614;2023-01-20T01:47:37;89.95;;;33.78;;
23670;SDS011;12012;51.998;7.614;2023-01-20T01:50:05;75.82;;;36.35;;
23670;SDS011;12012;51.998;7.614;2023-01-20T01:52:33;83.82;;;37.60;;
23670;SDS011;12012;51.998;7.614;2023-01-20T01:54:58;85.38;;;37.47;;
23670;SDS011;12012;51.998;7.614;2023-01-20T01:57:25;81.22;;;36.63;;
23670;SDS011;12012;51.998;7.614;2023-01-20T01:59:51;92.13;;;37.03;;
23670;SDS011;12012;51.998;7.614;2023-01-20T02:02:17;89.30;;;38.03;;
23670;SDS011;12012;51.998;7.614;2023-01-20T02:04:43;88.45;;;38.08;;
23670;SDS011;12012;51.998;7.614;2023-01-20T02:07:10;76.45;;;35.08;;
23670;SDS011;12012;51.998;7.614;2023-01-20T02:09:39;81.03;;;36.65;;
23670;SDS011;12012;51.998;7.614;2023-01-20T02:12:06;83.72;;;37.20;;
23670;SDS011;12012;51.998;7.614;2023-01-20T02:14:36;82.38;;;38.28;;
23670;SDS011;12012;51.998;7.614;2023-01-20T02:19:48;87.80;;;37.92;;
23670;SDS011;12012;51.998;7.614;2023-01-20T02:36:53;85.63;;;37.88;;
23670;SDS011;12012;51.998;7.614;2023-01-20T02:45:19;96.30;;;41.63;;
23670;SDS011;12012;51.998;7.614;2023-01-20T02:53:17;83.47;;;35.35;;
23670;SDS011;12012;51.998;7.614;2023-01-20T02:55:46;89.82;;;36.35;;
23670;SDS011;12012;51.998;7.614;2023-01-20T02:58:24;82.75;;;36.17;;
23670;SDS011;12012;51.998;7.614;2023-01-20T03:00:52;79.20;;;35.53;;
23670;SDS011;12012;51.998;7.614;2023-01-20T03:03:23;79.23;;;35.77;;
23670;SDS011;12012;51.998;7.614;2023-01-20T03:05:55;83.53;;;35.75;;
23670;SDS011;12012;51.998;7.614;2023-01-20T03:08:24;81.63;;;35.53;;
23670;SDS011;12012;51.998;7.614;2023-01-20T03:10:53;76.45;;;34.42;;
23670;SDS011;12012;51.998;7.614;2023-01-20T03:13:24;73.18;;;33.28;;
23670;SDS011;12012;51.998;7.614;2023-01-20T03:16:13;71.30;;;33.17;;
23670;SDS011;12012;51.998;7.614;2023-01-20T03:18:42;77.07;;;34.30;;
23670;SDS011;12012;51.998;7.614;2023-01-20T03:21:08;81.15;;;34.30;;
23670;SDS011;12012;51.998;7.614;2023-01-20T03:23:35;79.28;;;34.17;;
23670;SDS011;12012;51.998;7.614;2023-01-20T03:28:33;76.30;;;34.17;;
23670;SDS011;12012;51.998;7.614;2023-01-20T03:30:58;74.05;;;32.05;;
23670;SDS011;12012;51.998;7.614;2023-01-20T03:33:29;63.83;;;29.03;;
23670;SDS011;12012;51.998;7.614;2023-01-20T03:35:55;61.78;;;28.27;;
23670;SDS011;12012;51.998;7.614;2023-01-20T03:38:20;65.63;;;28.20;;
23670;SDS011;12012;51.998;7.614;2023-01-20T03:40:54;62.20;;;28.67;;
23670;SDS011;12012;51.998;7.614;2023-01-20T03:43:41;64.40;;;28.40;;
23670;SDS011;12012;51.998;7.614;2023-01-20T03:46:34;55.50;;;26.27;;
23670;SDS011;12012;51.998;7.614;2023-01-20T03:49:27;57.08;;;26.52;;
23670;SDS011;12012;51.998;7.614;2023-01-20T03:54:33;58.58;;;27.25;;
23670;SDS011;12012;51.998;7.614;2023-01-20T03:57:07;53.22;;;26.08;;
23670;SDS011;12012;51.998;7.614;2023-01-20T03:59:39;56.47;;;26.63;;
23670;SDS011;12012;51.998;7.614;2023-01-20T04:02:07;52.45;;;25.23;;
23670;SDS011;12012;51.998;7.614;2023-01-20T04:04:35;46.60;;;22.27;;
23670;SDS011;12012;51.998;7.614;2023-01-20T04:07:07;43.17;;;20.83;;
23670;SDS011;12012;51.998;7.614;2023-01-20T04:09:37;47.25;;;21.98;;
23670;SDS011;12012;51.998;7.614;2023-01-20T04:12:06;50.45;;;21.58;;
23670;SDS011;12012;51.998;7.614;2023-01-20T04:14:35;40.03;;;18.75;;
23670;SDS011;12012;51.998;7.614;2023-01-20T04:17:02;40.40;;;19.02;;
23670;SDS011;12012;51.998;7.614;2023-01-20T04:19:28;43.60;;;20.83;;
23670;SDS011;12012;51.998;7.614;2023-01-20T04:21:58;39.63;;;19.50;;
23670;SDS011;12012;51.998;7.614;2023-01-20T04:24:30;40.40;;;20.02;;
23670;SDS011;12012;51.998;7.614;2023-01-20T04:27:00;41.50;;;19.75;;
23670;SDS011;12012;51.998;7.614;2023-01-20T04:29:26;44.08;;;21.52;;
23670;SDS011;12012;51.998;7.614;2023-01-20T04:31:56;41.35;;;20.80;;
23670;SDS011;12012;51.998;7.614;2023-01-20T04:36:48;39.80;;;20.02;;
23670;SDS011;12012;51.998;7.614;2023-01-20T04:39:14;45.30;;;21.13;;
23670;SDS011;12012;51.998;7.614;2023-01-20T04:41:39;43.65;;;21.73;;
23670;SDS011;12012;51.998;7.614;2023-01-20T04:44:05;39.45;;;18.23;;
23670;SDS011;12012;51.998;7.614;2023-01-20T04:46:31;52.20;;;23.55;;
23670;SDS011;12012;51.998;7.614;2023-01-20T04:48:56;50.00;;;24.00;;
23670;SDS011;12012;51.998;7.614;2023-01-20T04:51:22;41.55;;;20.92;;
23670;SDS011;12012;51.998;7.614;2023-01-20T04:53:47;54.25;;;26.35;;
23670;SDS011;12012;51.998;7.614;2023-01-20T04:56:13;55.08;;;26.35;;
23670;SDS011;12012;51.998;7.614;2023-01-20T04:58:40;52.47;;;24.10;;
23670;SDS011;12012;51.998;7.614;2023-01-20T05:01:06;51.17;;;24.45;;
23670;SDS011;12012;51.998;7.614;2023-01-20T05:03:32;49.20;;;23.20;;
23670;SDS011;12012;51.998;7.614;2023-01-20T05:05:58;52.45;;;24.58;;
23670;SDS011;12012;51.998;7.614;2023-01-20T05:08:24;47.45;;;23.48;;
23670;SDS011;12012;51.998;7.614;2023-01-20T05:10:49;48.95;;;24.25;;
23670;SDS011;12012;51.998;7.614;2023-01-20T05:13:15;51.08;;;23.48;;
23670;SDS011;12012;51.998;7.614;2023-01-20T05:15:41;49.83;;;23.95;;
23670;SDS011;12012;51.998;7.614;2023-01-20T05:18:08;50.95;;;24.05;;
23670;SDS011;12012;51.998;7.614;2023-01-20T05:20:33;50.72;;;24.92;;
23670;SDS011;12012;51.998;7.614;2023-01-20T05:22:59;51.72;;;23.77;;
23670;SDS011;12012;51.998;7.614;2023-01-20T05:25:24;55.17;;;26.25;;
23670;SDS011;12012;51.998;7.614;2023-01-20T05:27:50;56.03;;;26.45;;
23670;SDS011;12012;51.998;7.614;2023-01-20T05:30:15;56.47;;;26.58;;
23670;SDS011;12012;51.998;7.614;2023-01-20T05:32:43;60.58;;;27.08;;
23670;SDS011;12012;51.998;7.614;2023-01-20T05:35:09;61.30;;;27.92;;
23670;SDS011;12012;51.998;7.614;2023-01-20T05:37:34;60.17;;;26.67;;
23670;SDS011;12012;51.998;7.614;2023-01-20T05:40:00;54.92;;;26.17;;
23670;SDS011;12012;51.998;7.614;2023-01-20T05:42:26;58.97;;;26.25;;
23670;SDS011;12012;51.998;7.614;2023-01-20T05:44:51;57.35;;;26.50;;
23670;SDS011;12012;51.998;7.614;2023-01-20T05:47:17;51.88;;;23.70;;
23670;SDS011;12012;51.998;7.614;2023-01-20T05:49:42;59.10;;;26.00;;
23670;SDS011;12012;51.998;7.614;2023-01-20T05:52:08;56.50;;;26.02;;
23670;SDS011;12012;51.998;7.614;2023-01-20T05:54:34;60.45;;;27.55;;
23670;SDS011;12012;51.998;7.614;2023-01-20T05:56:59;55.33;;;25.33;;
23670;SDS011;12012;51.998;7.614;2023-01-20T05:59:25;60.35;;;26.52;;
23670;SDS011;12012;51.998;7.614;2023-01-20T06:01:50;62.42;;;27.50;;
23670;SDS011;12012;51.998;7.614;2023-01-20T06:04:16;58.53;;;26.85;;
23670;SDS011;12012;51.998;7.614;2023-01-20T06:06:42;55.00;;;26.13;;
23670;SDS011;12012;51.998;7.614;2023-01-20T06:09:07;57.03;;;25.65;;
23670;SDS011;12012;51.998;7.614;2023-01-20T06:11:34;55.70;;;25.17;;
23670;SDS011;12012;51.998;7.614;2023-01-20T06:14:00;57.40;;;25.20;;
23670;SDS011;12012;51.998;7.614;2023-01-20T06:16:26;52.15;;;25.02;;
23670;SDS011;12012;51.998;7.614;2023-01-20T06:18:51;58.15;;;26.23;;
23670;SDS011;12012;51.998;7.614;2023-01-20T06:21:17;56.58;;;26.58;;
23670;SDS011;12012;51.998;7.614;2023-01-20T06:23:42;54.42;;;24.77;;
23670;SDS011;12012;51.998;7.614;2023-01-20T06:26:12;57.17;;;26.40;;
23670;SDS011;12012;51.998;7.614;2023-01-20T06:28:38;57.38;;;27.50;;
23670;SDS011;12012;51.998;7.614;2023-01-20T06:31:05;61.97;;;26.27;;
23670;SDS011;12012;51.998;7.614;2023-01-20T06:33:35;59.35;;;26.58;;
23670;SDS011;12012;51.998;7.614;2023-01-20T06:36:01;57.83;;;26.60;;
23670;SDS011;12012;51.998;7.614;2023-01-20T06:38:29;58.28;;;25.88;;
23670;SDS011;12012;51.998;7.614;2023-01-20T06:40:56;60.47;;;27.80;;
23670;SDS011;12012;51.998;7.614;2023-01-20T06:43:23;63.15;;;28.10;;
23670;SDS011;12012;51.998;7.614;2023-01-20T06:45:48;62.22;;;28.20;;
23670;SDS011;12012;51.998;7.614;2023-01-20T06:48:14;60.28;;;26.83;;
23670;SDS011;12012;51.998;7.614;2023-01-20T06:50:40;57.75;;;25.25;;
23670;SDS011;12012;51.998;7.614;2023-01-20T06:53:05;61.58;;;27.65;;
23670;SDS011;12012;51.998;7.614;2023-01-20T06:55:31;63.95;;;29.05;;
23670;SDS011;12012;51.998;7.614;2023-01-20T06:57:56;64.18;;;28.08;;
23670;SDS011;12012;51.998;7.614;2023-01-20T07:00:22;75.13;;;31.17;;
23670;SDS011;12012;51.998;7.614;2023-01-20T07:02:48;60.33;;;26.38;;
23670;SDS011;12012;51.998;7.614;2023-01-20T07:05:13;64.10;;;28.23;;
23670;SDS011;12012;51.998;7.614;2023-01-20T07:07:39;58.55;;;28.00;;
23670;SDS011;12012;51.998;7.614;2023-01-20T07:10:09;62.28;;;27.73;;
23670;SDS011;12012;51.998;7.614;2023-01-20T07:12:35;57.40;;;24.95;;
23670;SDS011;12012;51.998;7.614;2023-01-20T07:15:00;55.85;;;26.42;;
23670;SDS011;12012;51.998;7.614;2023-01-20T07:17:26;58.53;;;26.42;;
23670;SDS011;12012;51.998;7.614;2023-01-20T07:19:51;56.53;;;25.80;;
23670;SDS011;12012;51.998;7.614;2023-01-20T07:22:17;68.25;;;24.77;;
23670;SDS011;12012;51.998;7.614;2023-01-20T07:24:42;53.53;;;24.98;;
23670;SDS011;12012;51.998;7.614;2023-01-20T07:27:08;56.97;;;25.85;;
23670;SDS011;12012;51.998;7.614;2023-01-20T07:29:33;53.05;;;23.77;;
23670;SDS011;12012;51.998;7.614;2023-01-20T07:31:59;51.80;;;24.42;;
23670;SDS011;12012;51.998;7.614;2023-01-20T07:34:24;55.03;;;25.08;;
23670;SDS011;12012;51.998;7.614;2023-01-20T07:36:51;53.35;;;24.67;;
23670;SDS011;12012;51.998;7.614;2023-01-20T07:39:17;58.47;;;25.45;;
23670;SDS011;12012;51.998;7.614;2023-01-20T07:41:44;52.47;;;24.15;;
23670;SDS011;12012;51.998;7.614;2023-01-20T07:44:13;53.72;;;24.48;;
23670;SDS011;12012;51.998;7.614;2023-01-20T07:46:39;51.03;;;23.92;;
23670;SDS011;12012;51.998;7.614;2023-01-20T07:49:05;55.17;;;24.45;;
23670;SDS011;12012;51.998;7.614;2023-01-20T07:51:30;47.60;;;23.30;;
23670;SDS011;12012;51.998;7.614;2023-01-20T07:53:56;53.95;;;26.02;;
23670;SDS011;12012;51.998;7.614;2023-01-20T07:56:22;54.40;;;25.45;;
23670;SDS011;12012;51.998;7.614;2023-01-20T07:58:50;54.78;;;25.98;;
23670;SDS011;12012;51.998;7.614;2023-01-20T08:01:21;52.17;;;25.38;;
23670;SDS011;12012;51.998;7.614;2023-01-20T08:03:52;54.05;;;26.80;;
23670;SDS011;12012;51.998;7.614;2023-01-20T08:06:19;52.47;;;25.13;;
23670;SDS011;12012;51.998;7.614;2023-01-20T08:08:46;52.20;;;25.13;;
23670;SDS011;12012;51.998;7.614;2023-01-20T08:11:12;57.28;;;27.52;;
23670;SDS011;12012;51.998;7.614;2023-01-20T08:13:40;58.22;;;27.67;;
23670;SDS011;12012;51.998;7.614;2023-01-20T08:16:06;56.33;;;27.95;;
23670;SDS011;12012;51.998;7.614;2023-01-20T08:18:33;64.25;;;28.95;;
23670;SDS011;12012;51.998;7.614;2023-01-20T08:21:00;61.05;;;28.77;;
23670;SDS011;12012;51.998;7.614;2023-01-20T08:23:30;66.38;;;30.38;;
23670;SDS011;12012;51.998;7.614;2023-01-20T08:25:56;59.70;;;27.58;;
23670;SDS011;12012;51.998;7.614;2023-01-20T08:28:24;54.13;;;25.77;;
23670;SDS011;12012;51.998;7.614;2023-01-20T08:30:50;57.92;;;27.77;;
23670;SDS011;12012;51.998;7.614;2023-01-20T08:33:16;55.13;;;26.63;;
23670;SDS011;12012;51.998;7.614;2023-01-20T08:35:41;67.88;;;31.52;;
23670;SDS011;12012;51.998;7.614;2023-01-20T08:38:07;61.85;;;29.55;;
23670;SDS011;12012;51.998;7.614;2023-01-20T08:40:33;64.68;;;30.35;;
23670;SDS011;12012;51.998;7.614;2023-01-20T08:42:59;64.68;;;29.25;;
23670;SDS011;12012;51.998;7.614;2023-01-20T08:45:25;59.90;;;29.38;;
23670;SDS011;12012;51.998;7.614;2023-01-20T08:47:50;62.03;;;30.17;;
23670;SDS011;12012;51.998;7.614;2023-01-20T08:50:16;66.68;;;32.30;;
23670;SDS011;12012;51.998;7.614;2023-01-20T08:52:42;70.88;;;32.65;;
23670;SDS011;12012;51.998;7.614;2023-01-20T08:55:08;65.07;;;31.55;;
23670;SDS011;12012;51.998;7.614;2023-01-20T08:57:35;69.75;;;33.15;;
23670;SDS011;12012;51.998;7.614;2023-01-20T09:00:02;67.55;;;31.55;;
23670;SDS011;12012;51.998;7.614;2023-01-20T09:02:29;59.15;;;29.88;;
23670;SDS011;12012;51.998;7.614;2023-01-20T09:04:55;60.92;;;31.08;;
23670;SDS011;12012;51.998;7.614;2023-01-20T09:07:20;57.20;;;28.58;;
23670;SDS011;12012;51.998;7.614;2023-01-20T09:09:46;61.55;;;30.98;;
23670;SDS011;12012;51.998;7.614;2023-01-20T09:12:12;65.32;;;31.58;;
23670;SDS011;12012;51.998;7.614;2023-01-20T09:14:37;54.47;;;28.75;;
23670;SDS011;12012;51.998;7.614;2023-01-20T09:17:03;64.63;;;32.08;;
23670;SDS011;12012;51.998;7.614;2023-01-20T09:19:29;64.63;;;31.20;;
23670;SDS011;12012;51.998;7.614;2023-01-20T09:21:54;57.47;;;30.17;;
23670;SDS011;12012;51.998;7.614;2023-01-20T09:24:20;60.00;;;30.02;;
23670;SDS011;12012;51.998;7.614;2023-01-20T09:26:48;61.15;;;30.40;;
23670;SDS011;12012;51.998;7.614;2023-01-20T09:29:16;57.92;;;29.38;;
23670;SDS011;12012;51.998;7.614;2023-01-20T09:31:44;57.42;;;29.58;;
23670;SDS011;12012;51.998;7.614;2023-01-20T09:34:14;57.55;;;27.75;;
23670;SDS011;12012;51.998;7.614;2023-01-20T09:37:01;49.30;;;26.25;;
23670;SDS011;12012;51.998;7.614;2023-01-20T09:39:45;51.97;;;26.08;;
23670;SDS011;12012;51.998;7.614;2023-01-20T09:43:15;54.33;;;26.27;;
23670;SDS011;12012;51.998;7.614;2023-01-20T09:45:54;52.15;;;27.23;;
23670;SDS011;12012;51.998;7.614;2023-01-20T09:51:29;49.85;;;26.77;;
23670;SDS011;12012;51.998;7.614;2023-01-20T09:54:28;52.25;;;27.08;;
23670;SDS011;12012;51.998;7.614;2023-01-20T09:57:04;53.67;;;28.42;;
23670;SDS011;12012;51.998;7.614;2023-01-20T09:59:39;50.33;;;25.90;;
23670;SDS011;12012;51.998;7.614;2023-01-20T10:02:15;49.83;;;24.80;;
23670;SDS011;12012;51.998;7.614;2023-01-20T10:04:50;49.65;;;25.80;;
23670;SDS011;12012;51.998;7.614;2023-01-20T10:07:31;45.13;;;24.10;;
23670;SDS011;12012;51.998;7.614;2023-01-20T10:15:23;40.20;;;22.00;;
23670;SDS011;12012;51.998;7.614;2023-01-20T10:17:51;38.35;;;22.08;;
23670;SDS011;12012;51.998;7.614;2023-01-20T10:23:12;35.65;;;19.67;;
23670;SDS011;12012;51.998;7.614;2023-01-20T10:28:26;32.92;;;19.30;;
23670;SDS011;12012;51.998;7.614;2023-01-20T10:30:54;28.38;;;16.77;;
23670;SDS011;12012;51.998;7.614;2023-01-20T10:33:26;31.85;;;18.13;;
23670;SDS011;12012;51.998;7.614;2023-01-20T10:35:56;33.28;;;17.33;;
23670;SDS011;12012;51.998;7.614;2023-01-20T10:38:35;31.63;;;18.17;;
23670;SDS011;12012;51.998;7.614;2023-01-20T10:43:57;30.60;;;17.67;;
23670;SDS011;12012;51.998;7.614;2023-01-20T10:52:26;27.77;;;17.65;;
23670;SDS011;12012;51.998;7.614;2023-01-20T10:57:25;29.00;;;17.00;;
23670;SDS011;12012;51.998;7.614;2023-01-20T11:02:25;28.52;;;16.90;;
23670;SDS011;12012;51.998;7.614;2023-01-20T11:04:58;27.98;;;17.17;;
23670;SDS011;12012;51.998;7.614;2023-01-20T11:07:42;29.65;;;17.40;;
23670;SDS011;12012;51.998;7.614;2023-01-20T11:10:13;31.35;;;17.58;;
23670;SDS011;12012;51.998;7.614;2023-01-20T11:12:56;33.92;;;18.85;;
23670;SDS011;12012;51.998;7.614;2023-01-20T11:15:31;27.73;;;17.23;;
23670;SDS011;12012;51.998;7.614;2023-01-20T11:20:41;23.88;;;15.60;;
23670;SDS011;12012;51.998;7.614;2023-01-20T11:26:19;30.17;;;18.33;;
23670;SDS011;12012;51.998;7.614;2023-01-20T11:31:16;27.40;;;16.92;;
23670;SDS011;12012;51.998;7.614;2023-01-20T11:33:59;26.52;;;16.85;;
23670;SDS011;12012;51.998;7.614;2023-01-20T11:36:44;25.75;;;15.35;;
23670;SDS011;12012;51.998;7.614;2023-01-20T11:39:26;29.30;;;17.88;;
23670;SDS011;12012;51.998;7.614;2023-01-20T11:52:39;32.17;;;17.95;;
23670;SDS011;12012;51.998;7.614;2023-01-20T11:57:47;31.38;;;18.48;;
23670;SDS011;12012;51.998;7.614;2023-01-20T12:02:42;31.52;;;17.48;;
23670;SDS011;12012;51.998;7.614;2023-01-20T12:05:24;34.75;;;17.90;;
23670;SDS011;12012;51.998;7.614;2023-01-20T12:08:07;27.05;;;16.63;;
23670;SDS011;12012;51.998;7.614;2023-01-20T12:10:39;25.90;;;16.17;;
23670;SDS011;12012;51.998;7.614;2023-01-20T12:13:15;28.08;;;17.23;;
23670;SDS011;12012;51.998;7.614;2023-01-20T12:15:52;29.63;;;17.83;;
23670;SDS011;12012;51.998;7.614;2023-01-20T12:21:12;29.48;;;17.60;;
23670;SDS011;12012;51.998;7.614;2023-01-20T12:23:50;26.17;;;17.23;;
23670;SDS011;12012;51.998;7.614;2023-01-20T12:26:24;29.70;;;17.47;;
23670;SDS011;12012;51.998;7.614;2023-01-20T12:29:06;29.75;;;17.60;;
23670;SDS011;12012;51.998;7.614;2023-01-20T12:31:49;27.00;;;16.92;;
23670;SDS011;12012;51.998;7.614;2023-01-20T12:34:22;27.00;;;16.50;;
23670;SDS011;12012;51.998;7.614;2023-01-20T12:36:59;29.05;;;17.23;;
23670;SDS011;12012;51.998;7.614;2023-01-20T12:43:28;26.35;;;16.75;;
23670;SDS011;12012;51.998;7.614;2023-01-20T12:58:53;26.58;;;16.70;;
23670;SDS011;12012;51.998;7.614;2023-01-20T13:04:18;28.92;;;17.83;;
23670;SDS011;12012;51.998;7.614;2023-01-20T13:20:36;28.73;;;17.15;;
23670;SDS011;12012;51.998;7.614;2023-01-20T13:23:04;24.27;;;14.98;;
23670;SDS011;12012;51.998;7.614;2023-01-20T13:25:31;23.05;;;14.85;;
23670;SDS011;12012;51.998;7.614;2023-01-20T13:33:12;21.35;;;12.50;;
23670;SDS011;12012;51.998;7.614;2023-01-20T13:35:50;28.42;;;16.13;;
23670;SDS011;12012;51.998;7.614;2023-01-20T13:38:21;21.20;;;14.98;;
23670;SDS011;12012;51.998;7.614;2023-01-20T13:40:52;25.67;;;15.75;;
23670;SDS011;12012;51.998;7.614;2023-01-20T13:48:28;28.15;;;15.93;;
23670;SDS011;12012;51.998;7.614;2023-01-20T13:53:45;25.80;;;17.25;;
23670;SDS011;12012;51.998;7.614;2023-01-20T13:56:24;24.73;;;15.27;;
23670;SDS011;12012;51.998;7.614;2023-01-20T13:58:49;26.20;;;16.15;;
23670;SDS011;12012;51.998;7.614;2023-01-20T14:01:16;29.92;;;16.88;;
23670;SDS011;12012;51.998;7.614;2023-01-20T14:03:41;30.58;;;17.80;;
23670;SDS011;12012;51.998;7.614;2023-01-20T14:08:48;34.28;;;19.63;;
23670;SDS011;12012;51.998;7.614;2023-01-20T14:11:15;33.28;;;19.30;;
23670;SDS011;12012;51.998;7.614;2023-01-20T14:13:51;35.30;;;19.83;;
23670;SDS011;12012;51.998;7.614;2023-01-20T14:16:18;40.00;;;21.67;;
23670;SDS011;12012;51.998;7.614;2023-01-20T14:18:55;31.90;;;19.23;;
23670;SDS011;12012;51.998;7.614;2023-01-20T14:21:24;30.63;;;18.15;;
23670;SDS011;12012;51.998;7.614;2023-01-20T14:23:51;38.92;;;21.65;;
23670;SDS011;12012;51.998;7.614;2023-01-20T14:26:27;35.53;;;20.33;;
23670;SDS011;12012;51.998;7.614;2023-01-20T14:28:55;36.80;;;19.88;;
23670;SDS011;12012;51.998;7.614;2023-01-20T14:31:34;33.25;;;18.73;;
23670;SDS011;12012;51.998;7.614;2023-01-20T14:34:18;33.85;;;19.85;;
23670;SDS011;12012;51.998;7.614;2023-01-20T14:36:48;36.78;;;19.38;;
23670;SDS011;12012;51.998;7.614;2023-01-20T14:39:25;33.15;;;20.30;;
23670;SDS011;12012;51.998;7.614;2023-01-20T14:41:53;42.40;;;22.17;;
23670;SDS011;12012;51.998;7.614;2023-01-20T14:44:27;37.10;;;20.20;;
23670;SDS011;12012;51.998;7.614;2023-01-20T14:46:58;33.40;;;18.33;;
23670;SDS011;12012;51.998;7.614;2023-01-20T14:49:33;33.00;;;17.50;;
23670;SDS011;12012;51.998;7.614;2023-01-20T14:52:03;33.83;;;18.63;;
23670;SDS011;12012;51.998;7.614;2023-01-20T14:57:45;33.22;;;18.20;;
23670;SDS011;12012;51.998;7.614;2023-01-20T15:02:26;29.02;;;17.33;;
23670;SDS011;12012;51.998;7.614;2023-01-20T15:04:57;31.85;;;18.05;;
23670;SDS011;12012;51.998;7.614;2023-01-20T15:07:23;27.88;;;17.65;;
23670;SDS011;12012;51.998;7.614;2023-01-20T15:09:58;29.42;;;17.50;;
23670;SDS011;12012;51.998;7.614;2023-01-20T15:15:14;28.63;;;16.83;;
23670;SDS011;12012;51.998;7.614;2023-01-20T15:18:03;31.88;;;17.88;;
23670;SDS011;12012;51.998;7.614;2023-01-20T15:20:42;30.27;;;17.10;;
23670;SDS011;12012;51.998;7.614;2023-01-20T15:23:19;31.85;;;18.02;;
23670;SDS011;12012;51.998;7.614;2023-01-20T15:25:51;26.50;;;15.30;;
23670;SDS011;12012;51.998;7.614;2023-01-20T15:28:27;27.42;;;15.50;;
23670;SDS011;12012;51.998;7.614;2023-01-20T15:30:54;24.90;;;14.32;;
23670;SDS011;12012;51.998;7.614;2023-01-20T15:33:22;24.63;;;14.50;;
23670;SDS011;12012;51.998;7.614;2023-01-20T15:35:55;23.70;;;14.32;;
23670;SDS011;12012;51.998;7.614;2023-01-20T15:38:23;24.10;;;14.20;;
23670;SDS011;12012;51.998;7.614;2023-01-20T15:40:56;26.30;;;13.93;;
23670;SDS011;12012;51.998;7.614;2023-01-20T15:43:21;24.83;;;14.40;;
23670;SDS011;12012;51.998;7.614;2023-01-20T15:45:47;30.50;;;17.13;;
23670;SDS011;12012;51.998;7.614;2023-01-20T15:48:15;27.25;;;15.88;;
23670;SDS011;12012;51.998;7.614;2023-01-20T15:50:48;24.92;;;14.55;;
23670;SDS011;12012;51.998;7.614;2023-01-20T15:53:14;29.05;;;16.20;;
23670;SDS011;12012;51.998;7.614;2023-01-20T15:55:49;25.13;;;14.30;;
23670;SDS011;12012;51.998;7.614;2023-01-20T15:58:25;23.05;;;13.77;;
23670;SDS011;12012;51.998;7.614;2023-01-20T16:00:52;22.13;;;13.70;;
23670;SDS011;12012;51.998;7.614;2023-01-20T16:03:19;26.10;;;14.70;;
23670;SDS011;12012;51.998;7.614;2023-01-20T16:05:47;32.67;;;18.30;;
23670;SDS011;12012;51.998;7.614;2023-01-20T16:08:14;24.88;;;14.48;;
23670;SDS011;12012;51.998;7.614;2023-01-20T16:10:41;22.75;;;14.20;;
23670;SDS011;12012;51.998;7.614;2023-01-20T16:13:07;24.08;;;14.75;;
23670;SDS011;12012;51.998;7.614;2023-01-20T16:15:34;25.50;;;14.25;;
23670;SDS011;12012;51.998;7.614;2023-01-20T16:18:00;26.05;;;14.00;;
23670;SDS011;12012;51.998;7.614;2023-01-20T16:20:26;27.52;;;16.40;;
23670;SDS011;12012;51.998;7.614;2023-01-20T16:22:52;25.02;;;14.55;;
23670;SDS011;12012;51.998;7.614;2023-01-20T16:25:18;29.05;;;15.25;;
23670;SDS011;12012;51.998;7.614;2023-01-20T16:27:44;29.08;;;17.27;;
23670;SDS011;12012;51.998;7.614;2023-01-20T16:30:13;30.55;;;16.88;;
23670;SDS011;12012;51.998;7.614;2023-01-20T16:32:40;36.42;;;18.83;;
23670;SDS011;12012;51.998;7.614;2023-01-20T16:35:10;30.92;;;17.50;;
23670;SDS011;12012;51.998;7.614;2023-01-20T16:37:36;31.75;;;18.00;;
23670;SDS011;12012;51.998;7.614;2023-01-20T16:40:02;34.28;;;19.13;;
23670;SDS011;12012;51.998;7.614;2023-01-20T16:42:27;28.20;;;16.40;;
23670;SDS011;12012;51.998;7.614;2023-01-20T16:44:53;30.92;;;16.27;;
23670;SDS011;12012;51.998;7.614;2023-01-20T16:47:19;32.08;;;17.13;;
23670;SDS011;12012;51.998;7.614;2023-01-20T16:49:44;28.88;;;15.32;;
23670;SDS011;12012;51.998;7.614;2023-01-20T16:52:10;29.10;;;15.88;;
23670;SDS011;12012;51.998;7.614;2023-01-20T16:54:37;29.88;;;15.82;;
23670;SDS011;12012;51.998;7.614;2023-01-20T16:57:03;31.92;;;16.05;;
23670;SDS011;12012;51.998;7.614;2023-01-20T16:59:29;28.65;;;16.35;;
23670;SDS011;12012;51.998;7.614;2023-01-20T17:01:54;29.70;;;15.70;;